createdAt,value
2019-04-27T00:00:00.098Z,73.10
2019-04-27T00:00:57.057Z,72.99
2019-04-27T00:01:57.095Z,73.19
2019-04-27T00:03:02.191Z,73.19
2019-04-27T00:03:58.037Z,72.99
2019-04-27T00:04:57.008Z,73.30
2019-04-27T00:05:57.024Z,73.71
2019-04-27T00:06:56.974Z,73.91
2019-04-27T00:07:59.308Z,73.19
2019-04-27T00:08:56.941Z,72.89
2019-04-27T00:09:56.974Z,73.10
2019-04-27T00:10:59.758Z,72.89
2019-04-27T00:11:57.917Z,72.99
2019-04-27T00:12:57.259Z,72.78
2019-04-27T00:13:56.940Z,72.99
2019-04-27T00:14:56.898Z,73.19
2019-04-27T00:15:56.893Z,73.91
2019-04-27T00:16:56.858Z,73.30
2019-04-27T00:17:58.472Z,72.99
2019-04-27T00:18:58.083Z,72.99
2019-04-27T00:19:56.818Z,73.50
2019-04-27T00:20:56.818Z,73.91
2019-04-27T00:21:56.841Z,73.61
2019-04-27T00:22:56.831Z,73.50
2019-04-27T00:23:56.915Z,73.50
2019-04-27T00:24:56.804Z,73.50
2019-04-27T00:25:56.817Z,72.89
2019-04-27T00:26:56.785Z,73.40
2019-04-27T00:27:56.767Z,73.71
2019-04-27T00:28:56.735Z,73.91
2019-04-27T00:29:56.825Z,73.30
2019-04-27T00:30:56.706Z,72.58
2019-04-27T00:31:56.694Z,72.48
2019-04-27T00:32:56.686Z,72.10
2019-04-27T00:33:56.665Z,72.20
2019-04-27T00:34:56.686Z,72.00
2019-04-27T00:35:56.645Z,71.48
2019-04-27T00:36:56.635Z,71.28
2019-04-27T00:37:56.667Z,71.17
2019-04-27T00:38:56.617Z,71.28
2019-04-27T00:39:56.604Z,71.17
2019-04-27T00:40:56.608Z,71.59
2019-04-27T00:41:56.583Z,71.17
2019-04-27T00:42:56.624Z,71.38
2019-04-27T00:43:56.582Z,71.48
2019-04-27T00:44:56.573Z,71.59
2019-04-27T00:45:56.544Z,71.08
2019-04-27T00:46:56.538Z,70.87
2019-04-27T00:47:59.672Z,71.17
2019-04-27T00:48:56.505Z,70.87
2019-04-27T00:49:56.496Z,70.76
2019-04-27T00:50:56.497Z,70.97
2019-04-27T00:51:56.512Z,71.28
2019-04-27T00:52:56.518Z,71.35
2019-04-27T00:53:56.456Z,71.35
2019-04-27T00:54:56.457Z,71.76
2019-04-27T00:55:56.437Z,71.66
2019-04-27T00:56:56.427Z,72.10
2019-04-27T00:57:58.832Z,72.41
2019-04-27T00:58:56.398Z,72.61
2019-04-27T00:59:56.434Z,73.02
2019-04-27T01:00:56.424Z,72.61
2019-04-27T01:01:56.367Z,72.20
2019-04-27T01:02:56.356Z,72.72
2019-04-27T01:03:56.357Z,72.31
2019-04-27T01:04:56.403Z,72.20
2019-04-27T01:05:56.338Z,72.20
2019-04-27T01:06:56.349Z,72.41
2019-04-27T01:07:56.312Z,73.02
2019-04-27T01:08:56.288Z,73.13
2019-04-27T01:09:56.309Z,73.64
2019-04-27T01:10:56.337Z,73.54
2019-04-27T01:11:56.257Z,73.13
2019-04-27T01:12:56.265Z,72.85
2019-04-27T01:13:56.251Z,73.36
2019-04-27T01:14:56.394Z,73.47
2019-04-27T01:15:56.258Z,74.29
2019-04-27T01:16:56.207Z,74.19
2019-04-27T01:18:11.093Z,74.19
2019-04-27T01:18:58.842Z,73.78
2019-04-27T01:19:56.183Z,73.68
2019-04-27T01:20:56.177Z,73.98
2019-04-27T01:21:56.187Z,74.29
2019-04-27T01:22:56.230Z,73.78
2019-04-27T01:23:56.141Z,73.68
2019-04-27T01:24:56.118Z,73.68
2019-04-27T01:25:56.110Z,74.50
2019-04-27T01:26:56.139Z,75.01
2019-04-27T01:27:56.116Z,74.91
2019-04-27T01:28:56.077Z,75.04
2019-04-27T01:29:56.060Z,75.25
2019-04-27T01:30:56.060Z,75.56
2019-04-27T01:31:56.038Z,75.76
2019-04-27T01:32:56.076Z,75.97
2019-04-27T01:33:56.017Z,76.28
2019-04-27T01:34:56.010Z,76.48
2019-04-27T01:35:55.997Z,77.41
2019-04-27T01:36:56.044Z,77.41
2019-04-27T01:37:55.996Z,77.82
2019-04-27T01:38:55.972Z,77.10
2019-04-27T01:39:55.958Z,77.10
2019-04-27T01:40:55.990Z,77.41
2019-04-27T01:41:55.929Z,78.03
2019-04-27T01:42:55.926Z,78.03
2019-04-27T01:43:55.944Z,77.41
2019-04-27T01:44:55.904Z,77.72
2019-04-27T01:45:55.926Z,78.03
2019-04-27T01:46:55.880Z,78.33
2019-04-27T01:47:55.877Z,78.33
2019-04-27T01:48:55.888Z,78.33
2019-04-27T01:49:55.868Z,77.92
2019-04-27T01:50:55.856Z,77.82
2019-04-27T01:51:55.844Z,78.99
2019-04-27T01:52:55.844Z,79.40
2019-04-27T01:53:55.815Z,79.30
2019-04-27T01:54:55.850Z,78.99
2019-04-27T01:55:55.802Z,79.26
2019-04-27T01:56:55.771Z,79.57
2019-04-27T01:57:55.755Z,78.68
2019-04-27T01:58:55.758Z,79.09
2019-04-27T01:59:55.759Z,78.89
2019-04-27T02:00:55.727Z,78.99
2019-04-27T02:01:55.735Z,79.09
2019-04-27T02:02:55.714Z,79.19
2019-04-27T02:03:55.727Z,79.50
2019-04-27T02:04:55.696Z,79.30
2019-04-27T02:05:55.678Z,79.19
2019-04-27T02:06:55.675Z,79.19
2019-04-27T02:07:55.649Z,79.71
2019-04-27T02:08:55.699Z,79.71
2019-04-27T02:09:55.628Z,80.33
2019-04-27T02:10:55.616Z,80.22
2019-04-27T02:11:55.607Z,80.53
2019-04-27T02:12:55.588Z,80.74
2019-04-27T02:13:55.621Z,80.84
2019-04-27T02:14:55.610Z,80.22
2019-04-27T02:15:55.557Z,79.91
2019-04-27T02:16:55.558Z,80.77
2019-04-27T02:17:55.538Z,81.39
2019-04-27T02:18:55.527Z,81.39
2019-04-27T02:19:55.556Z,81.29
2019-04-27T02:20:55.515Z,81.39
2019-04-27T02:21:55.505Z,81.49
2019-04-27T02:22:55.484Z,81.56
2019-04-27T02:23:55.486Z,81.67
2019-04-27T02:24:55.495Z,82.07
2019-04-27T02:25:55.495Z,81.97
2019-04-27T02:26:55.462Z,81.46
2019-04-27T02:27:55.437Z,81.35
2019-04-27T02:28:55.435Z,81.15
2019-04-27T02:29:55.444Z,80.94
2019-04-27T02:30:55.399Z,80.94
2019-04-27T02:31:55.453Z,81.25
2019-04-27T02:32:55.387Z,81.67
2019-04-27T02:33:55.403Z,81.56
2019-04-27T02:34:55.371Z,81.76
2019-04-27T02:35:55.349Z,81.76
2019-04-27T02:36:55.377Z,81.87
2019-04-27T02:37:55.326Z,81.87
2019-04-27T02:38:55.307Z,81.76
2019-04-27T02:39:55.325Z,81.56
2019-04-27T02:40:55.376Z,81.87
2019-04-27T02:41:55.277Z,82.18
2019-04-27T02:42:55.280Z,82.39
2019-04-27T02:43:55.312Z,81.87
2019-04-27T02:44:55.245Z,81.87
2019-04-27T02:45:55.246Z,81.97
2019-04-27T02:46:55.240Z,81.67
2019-04-27T02:47:55.208Z,81.97
2019-04-27T02:49:00.015Z,81.87
2019-04-27T02:49:56.206Z,81.67
2019-04-27T02:50:55.234Z,81.87
2019-04-27T02:51:55.169Z,82.18
2019-04-27T02:52:55.165Z,81.87
2019-04-27T02:53:55.194Z,81.76
2019-04-27T02:54:55.176Z,82.07
2019-04-27T02:55:55.135Z,81.87
2019-04-27T02:56:55.113Z,81.67
2019-04-27T02:57:55.108Z,81.56
2019-04-27T02:58:55.102Z,81.67
2019-04-27T02:59:55.114Z,81.35
2019-04-27T03:00:55.064Z,81.46
2019-04-27T03:01:55.057Z,81.05
2019-04-27T03:02:55.047Z,81.05
2019-04-27T03:03:55.043Z,80.43
2019-04-27T03:04:55.066Z,81.05
2019-04-27T03:05:55.065Z,81.25
2019-04-27T03:06:55.007Z,81.35
2019-04-27T03:07:54.996Z,81.25
2019-04-27T03:08:54.985Z,81.52
2019-04-27T03:09:54.969Z,81.52
2019-04-27T03:10:55.003Z,81.52
2019-04-27T03:11:54.947Z,81.62
2019-04-27T03:12:54.935Z,81.32
2019-04-27T03:13:54.926Z,81.01
2019-04-27T03:14:54.914Z,80.91
2019-04-27T03:15:54.954Z,80.91
2019-04-27T03:16:54.925Z,79.98
2019-04-27T03:17:54.889Z,79.57
2019-04-27T03:19:10.364Z,79.47
2019-04-27T03:19:55.866Z,79.67
2019-04-27T03:20:54.887Z,79.88
2019-04-27T03:21:54.846Z,79.77
2019-04-27T03:22:54.826Z,79.57
2019-04-27T03:23:54.813Z,79.77
2019-04-27T03:24:54.840Z,79.67
2019-04-27T03:25:54.793Z,79.91
2019-04-27T03:26:54.784Z,79.91
2019-04-27T03:27:54.814Z,80.02
2019-04-27T03:28:54.785Z,80.63
2019-04-27T03:29:54.757Z,80.74
2019-04-27T03:30:54.746Z,80.74
2019-04-27T03:31:54.780Z,81.25
2019-04-27T03:32:56.476Z,81.15
2019-04-27T03:33:58.916Z,81.67
2019-04-27T03:34:55.699Z,81.05
2019-04-27T03:35:54.684Z,81.35
2019-04-27T03:36:54.709Z,80.84
2019-04-27T03:37:54.693Z,80.43
2019-04-27T03:38:54.651Z,81.05
2019-04-27T03:39:54.642Z,80.91
2019-04-27T03:40:54.631Z,80.80
2019-04-27T03:41:54.622Z,80.91
2019-04-27T03:42:54.650Z,80.70
2019-04-27T03:43:54.621Z,80.60
2019-04-27T03:44:54.603Z,80.19
2019-04-27T03:45:54.583Z,80.94
2019-04-27T03:46:54.563Z,80.94
2019-04-27T03:47:54.581Z,80.63
2019-04-27T03:48:54.543Z,80.43
2019-04-27T03:49:54.541Z,80.84
2019-04-27T03:50:54.532Z,80.94
2019-04-27T03:51:54.563Z,81.05
2019-04-27T03:52:54.523Z,81.35
2019-04-27T03:53:57.206Z,81.25
2019-04-27T03:54:54.506Z,81.87
2019-04-27T03:55:54.472Z,81.46
2019-04-27T03:56:54.463Z,81.35
2019-04-27T03:57:54.441Z,81.46
2019-04-27T03:58:54.473Z,81.15
2019-04-27T03:59:54.426Z,81.35
2019-04-27T04:00:54.419Z,81.56
2019-04-27T04:01:54.412Z,81.76
2019-04-27T04:02:54.392Z,81.62
2019-04-27T04:03:54.413Z,82.28
2019-04-27T04:04:54.367Z,81.46
2019-04-27T04:05:54.353Z,81.25
2019-04-27T04:06:54.347Z,81.35
2019-04-27T04:07:54.406Z,81.56
2019-04-27T04:08:55.241Z,81.67
2019-04-27T04:09:54.321Z,81.62
2019-04-27T04:10:54.321Z,81.93
2019-04-27T04:11:54.298Z,81.93
2019-04-27T04:12:56.240Z,82.18
2019-04-27T04:13:54.342Z,83.17
2019-04-27T04:14:54.261Z,83.06
2019-04-27T04:15:54.252Z,82.65
2019-04-27T04:16:54.238Z,82.76
2019-04-27T04:17:54.230Z,82.96
2019-04-27T04:18:54.255Z,82.31
2019-04-27T04:19:58.031Z,81.28
2019-04-27T04:20:55.189Z,82.00
2019-04-27T04:21:54.192Z,80.56
2019-04-27T04:22:54.169Z,81.07
2019-04-27T04:23:54.223Z,81.28
2019-04-27T04:24:54.163Z,81.69
2019-04-27T04:25:54.141Z,81.48
2019-04-27T04:26:54.131Z,80.66
2019-04-27T04:27:54.120Z,80.93
2019-04-27T04:28:54.140Z,81.04
2019-04-27T04:29:54.090Z,80.32
2019-04-27T04:30:54.080Z,80.63
2019-04-27T04:31:54.076Z,80.01
2019-04-27T04:32:54.090Z,80.52
2019-04-27T04:33:54.095Z,78.98
2019-04-27T04:34:54.088Z,79.60
2019-04-27T04:35:54.025Z,79.29
2019-04-27T04:36:54.018Z,79.08
2019-04-27T04:37:54.008Z,80.35
2019-04-27T04:38:53.993Z,81.07
2019-04-27T04:39:54.020Z,80.97
2019-04-27T04:40:53.976Z,80.97
2019-04-27T04:41:53.958Z,80.66
2019-04-27T04:42:53.962Z,80.35
2019-04-27T04:43:53.959Z,80.77
2019-04-27T04:44:53.970Z,80.66
2019-04-27T04:45:53.929Z,80.52
2019-04-27T04:46:53.910Z,80.21
2019-04-27T04:47:53.898Z,80.52
2019-04-27T04:48:53.894Z,80.01
2019-04-27T04:50:07.399Z,79.70
2019-04-27T04:50:54.872Z,79.60
2019-04-27T04:51:53.902Z,80.01
2019-04-27T04:52:53.841Z,79.60
2019-04-27T04:53:53.871Z,79.36
2019-04-27T04:54:53.847Z,79.15
2019-04-27T04:55:53.822Z,78.85
2019-04-27T04:56:53.844Z,78.85
2019-04-27T04:57:53.788Z,78.53
2019-04-27T04:58:53.772Z,79.05
2019-04-27T04:59:53.769Z,79.19
2019-04-27T05:00:53.806Z,79.49
2019-04-27T05:01:53.738Z,79.39
2019-04-27T05:02:53.737Z,79.49
2019-04-27T05:03:53.720Z,80.01
2019-04-27T05:04:53.720Z,79.94
2019-04-27T05:05:53.765Z,80.15
2019-04-27T05:06:53.684Z,80.87
2019-04-27T05:07:53.675Z,80.66
2019-04-27T05:08:53.666Z,80.87
2019-04-27T05:09:53.648Z,80.77
2019-04-27T05:10:53.667Z,80.46
2019-04-27T05:11:53.689Z,81.01
2019-04-27T05:12:53.626Z,81.32
2019-04-27T05:13:53.612Z,81.01
2019-04-27T05:14:53.607Z,81.62
2019-04-27T05:15:53.599Z,81.93
2019-04-27T05:16:53.617Z,82.24
2019-04-27T05:17:53.587Z,82.45
2019-04-27T05:18:53.579Z,82.65
2019-04-27T05:19:53.548Z,82.86
2019-04-27T05:20:53.548Z,82.65
2019-04-27T05:21:53.574Z,82.45
2019-04-27T05:22:53.516Z,82.76
2019-04-27T05:23:53.497Z,82.86
2019-04-27T05:24:53.524Z,82.65
2019-04-27T05:25:53.502Z,83.17
2019-04-27T05:26:53.508Z,83.37
2019-04-27T05:27:53.455Z,83.58
2019-04-27T05:28:53.468Z,83.06
2019-04-27T05:29:53.436Z,82.65
2019-04-27T05:30:53.449Z,82.65
2019-04-27T05:31:53.467Z,82.10
2019-04-27T05:32:53.422Z,81.79
2019-04-27T05:33:53.415Z,82.20
2019-04-27T05:34:53.406Z,82.62
2019-04-27T05:35:53.382Z,82.51
2019-04-27T05:36:53.388Z,82.65
2019-04-27T05:37:53.346Z,82.71
2019-04-27T05:38:53.365Z,82.62
2019-04-27T05:39:53.331Z,82.20
2019-04-27T05:40:53.388Z,81.59
2019-04-27T05:41:53.306Z,81.48
2019-04-27T05:42:55.371Z,81.90
2019-04-27T05:43:53.275Z,82.00
2019-04-27T05:44:53.285Z,82.41
2019-04-27T05:45:57.073Z,82.41
2019-04-27T05:46:54.290Z,82.10
2019-04-27T05:47:53.237Z,81.90
2019-04-27T05:48:53.227Z,81.90
2019-04-27T05:49:53.220Z,82.00
2019-04-27T05:50:58.755Z,81.79
2019-04-27T05:51:54.324Z,81.59
2019-04-27T05:52:53.193Z,81.38
2019-04-27T05:53:53.166Z,81.28
2019-04-27T05:54:53.167Z,81.69
2019-04-27T05:55:53.145Z,81.14
2019-04-27T05:56:53.144Z,81.34
2019-04-27T05:57:53.154Z,81.04
2019-04-27T05:58:53.120Z,80.93
2019-04-27T05:59:53.114Z,80.83
2019-04-27T06:00:53.108Z,81.04
2019-04-27T06:01:53.126Z,81.41
2019-04-27T06:02:53.094Z,81.71
2019-04-27T06:03:53.067Z,82.17
2019-04-27T06:04:53.045Z,82.47
2019-04-27T06:05:53.045Z,82.47
2019-04-27T06:06:53.067Z,83.29
2019-04-27T06:07:53.015Z,83.81
2019-04-27T06:08:53.044Z,84.53
2019-04-27T06:09:52.994Z,85.14
2019-04-27T06:10:53.014Z,85.90
2019-04-27T06:11:52.975Z,86.11
2019-04-27T06:12:52.967Z,86.52
2019-04-27T06:13:52.994Z,86.83
2019-04-27T06:14:52.939Z,87.75
2019-04-27T06:15:52.924Z,88.06
2019-04-27T06:16:52.915Z,87.96
2019-04-27T06:17:52.924Z,88.17
2019-04-27T06:18:52.933Z,89.19
2019-04-27T06:19:52.901Z,89.29
2019-04-27T06:20:55.717Z,89.60
2019-04-27T06:21:52.865Z,89.40
2019-04-27T06:22:52.853Z,88.57
2019-04-27T06:23:52.841Z,88.68
2019-04-27T06:24:54.634Z,88.68
2019-04-27T06:25:52.853Z,88.98
2019-04-27T06:26:52.805Z,88.78
2019-04-27T06:27:52.793Z,88.27
2019-04-27T06:28:52.783Z,87.85
2019-04-27T06:29:52.815Z,86.00
2019-04-27T06:30:52.765Z,86.56
2019-04-27T06:31:52.752Z,87.13
2019-04-27T06:32:52.743Z,87.59
2019-04-27T06:33:52.734Z,87.59
2019-04-27T06:34:52.826Z,87.65
2019-04-27T06:35:52.731Z,87.65
2019-04-27T06:36:52.724Z,88.06
2019-04-27T06:37:52.690Z,87.85
2019-04-27T06:38:52.683Z,87.45
2019-04-27T06:39:52.703Z,87.04
2019-04-27T06:40:52.655Z,87.04
2019-04-27T06:41:52.642Z,86.32
2019-04-27T06:42:52.637Z,86.83
2019-04-27T06:43:52.641Z,86.93
2019-04-27T06:44:52.642Z,86.52
2019-04-27T06:45:52.604Z,87.10
2019-04-27T06:46:52.589Z,87.61
2019-04-27T06:47:52.632Z,87.61
2019-04-27T06:48:52.592Z,85.97
2019-04-27T06:49:52.582Z,85.93
2019-04-27T06:51:02.588Z,85.82
2019-04-27T06:51:53.539Z,85.11
2019-04-27T06:52:52.596Z,85.11
2019-04-27T06:53:52.571Z,83.94
2019-04-27T06:54:52.532Z,85.27
2019-04-27T06:55:52.491Z,83.94
2019-04-27T06:56:52.489Z,83.49
2019-04-27T06:57:52.532Z,82.77
2019-04-27T06:58:52.464Z,81.64
2019-04-27T06:59:52.451Z,82.87
2019-04-27T07:00:52.441Z,82.97
2019-04-27T07:01:52.464Z,83.18
2019-04-27T07:02:55.166Z,82.46
2019-04-27T07:03:52.422Z,82.87
2019-04-27T07:04:52.417Z,83.59
2019-04-27T07:05:52.381Z,84.00
2019-04-27T07:06:55.889Z,83.69
2019-04-27T07:07:52.359Z,83.07
2019-04-27T07:08:55.140Z,83.49
2019-04-27T07:09:52.373Z,82.97
2019-04-27T07:10:52.333Z,82.73
2019-04-27T07:11:52.365Z,82.63
2019-04-27T07:12:52.308Z,82.83
2019-04-27T07:13:52.305Z,83.14
2019-04-27T07:14:55.066Z,81.74
2019-04-27T07:15:52.301Z,82.77
2019-04-27T07:16:52.266Z,82.87
2019-04-27T07:17:52.251Z,82.46
2019-04-27T07:18:52.241Z,82.36
2019-04-27T07:19:52.232Z,81.85
2019-04-27T07:20:52.257Z,81.74
2019-04-27T07:21:52.222Z,81.64
2019-04-27T07:22:52.202Z,81.85
2019-04-27T07:23:52.180Z,82.26
2019-04-27T07:24:52.250Z,81.60
2019-04-27T07:25:52.160Z,81.29
2019-04-27T07:26:52.211Z,81.20
2019-04-27T07:27:52.141Z,81.60
2019-04-27T07:28:52.131Z,82.01
2019-04-27T07:29:53.691Z,81.71
2019-04-27T07:30:52.121Z,81.71
2019-04-27T07:31:52.130Z,82.01
2019-04-27T07:32:52.861Z,81.36
2019-04-27T07:33:52.119Z,81.26
2019-04-27T07:34:52.112Z,81.26
2019-04-27T07:35:52.069Z,80.95
2019-04-27T07:36:52.108Z,80.54
2019-04-27T07:37:52.038Z,80.13
2019-04-27T07:38:52.403Z,80.64
2019-04-27T07:39:52.011Z,81.43
2019-04-27T07:40:52.012Z,81.22
2019-04-27T07:41:52.035Z,80.67
2019-04-27T07:42:51.999Z,80.36
2019-04-27T07:43:51.960Z,78.93
2019-04-27T07:44:51.970Z,78.69
2019-04-27T07:45:52.006Z,78.38
2019-04-27T07:46:51.967Z,78.34
2019-04-27T07:47:51.931Z,77.83
2019-04-27T07:48:51.914Z,77.94
2019-04-27T07:49:51.899Z,77.80
2019-04-27T07:50:51.890Z,77.76
2019-04-27T07:51:51.912Z,77.11
2019-04-27T07:52:51.869Z,75.85
2019-04-27T07:53:51.905Z,75.82
2019-04-27T07:54:51.853Z,75.68
2019-04-27T07:55:51.857Z,74.42
2019-04-27T07:56:51.880Z,73.60
2019-04-27T07:57:51.823Z,71.84
2019-04-27T07:58:51.840Z,71.16
2019-04-27T07:59:51.820Z,70.21
2019-04-27T08:00:51.825Z,69.13
2019-04-27T08:01:51.831Z,68.69
2019-04-27T08:02:51.793Z,67.88
2019-04-27T08:03:51.752Z,66.22
2019-04-27T08:04:51.781Z,66.02
2019-04-27T08:05:51.743Z,67.10
2019-04-27T08:06:51.774Z,66.65
2019-04-27T08:07:51.712Z,65.63
2019-04-27T08:08:51.695Z,65.53
2019-04-27T08:09:51.683Z,65.94
2019-04-27T08:10:51.679Z,66.65
2019-04-27T08:11:51.701Z,66.14
2019-04-27T08:12:51.690Z,65.53
2019-04-27T08:13:51.640Z,65.12
2019-04-27T08:14:51.628Z,65.12
2019-04-27T08:15:51.635Z,65.63
2019-04-27T08:16:51.611Z,66.24
2019-04-27T08:17:51.657Z,65.47
2019-04-27T08:18:51.759Z,64.86
2019-04-27T08:19:51.575Z,64.15
2019-04-27T08:20:51.564Z,63.51
2019-04-27T08:21:51.555Z,62.51
2019-04-27T08:22:51.595Z,62.98
2019-04-27T08:23:51.555Z,61.83
2019-04-27T08:24:51.510Z,60.82
2019-04-27T08:25:51.521Z,60.44
2019-04-27T08:26:51.493Z,60.11
2019-04-27T08:27:51.519Z,60.85
2019-04-27T08:28:51.483Z,59.97
2019-04-27T08:29:51.465Z,60.47
2019-04-27T08:30:51.452Z,62.13
2019-04-27T08:31:51.446Z,63.68
2019-04-27T08:32:51.471Z,63.68
2019-04-27T08:33:51.416Z,63.58
2019-04-27T08:34:51.402Z,62.23
2019-04-27T08:35:51.420Z,61.29
2019-04-27T08:36:51.384Z,61.82
2019-04-27T08:37:51.413Z,61.52
2019-04-27T08:38:51.374Z,61.93
2019-04-27T08:39:51.362Z,62.02
2019-04-27T08:40:51.352Z,61.41
2019-04-27T08:41:51.372Z,59.16
2019-04-27T08:42:51.454Z,58.11
2019-04-27T08:43:51.304Z,55.47
2019-04-27T08:44:51.303Z,53.55
2019-04-27T08:45:51.306Z,53.22
2019-04-27T08:46:51.323Z,52.67
2019-04-27T08:47:51.262Z,52.16
2019-04-27T08:48:51.254Z,52.04
2019-04-27T08:49:51.244Z,51.59
2019-04-27T08:50:51.238Z,50.17
2019-04-27T08:51:59.265Z,50.73
2019-04-27T08:52:52.203Z,51.89
2019-04-27T08:53:51.197Z,52.06
2019-04-27T08:54:51.205Z,54.23
2019-04-27T08:55:52.777Z,55.98
2019-04-27T08:56:51.204Z,56.01
2019-04-27T08:57:51.153Z,56.61
2019-04-27T08:58:51.144Z,54.51
2019-04-27T08:59:51.192Z,55.15
2019-04-27T09:00:51.126Z,55.70
2019-04-27T09:01:51.155Z,55.70
2019-04-27T09:02:51.115Z,55.93
2019-04-27T09:03:51.093Z,55.96
2019-04-27T09:04:51.093Z,56.39
2019-04-27T09:05:51.066Z,58.04
2019-04-27T09:06:51.106Z,60.20
2019-04-27T09:07:51.058Z,58.62
2019-04-27T09:08:51.043Z,57.71
2019-04-27T09:09:51.024Z,57.04
2019-04-27T09:10:51.015Z,55.02
2019-04-27T09:11:51.056Z,51.86
2019-04-27T09:12:53.547Z,53.50
2019-04-27T09:13:50.994Z,53.32
2019-04-27T09:14:51.026Z,51.10
2019-04-27T09:15:50.959Z,50.85
2019-04-27T09:16:59.532Z,48.61
2019-04-27T09:17:51.951Z,48.26
2019-04-27T09:18:50.927Z,47.94
2019-04-27T09:19:50.915Z,46.18
2019-04-27T09:20:50.908Z,44.75
2019-04-27T09:21:50.936Z,43.36
2019-04-27T09:22:50.876Z,42.68
2019-04-27T09:23:50.907Z,41.07
2019-04-27T09:24:50.858Z,40.01
2019-04-27T09:25:50.856Z,41.77
2019-04-27T09:26:50.838Z,44.53
2019-04-27T09:27:50.827Z,45.54
2019-04-27T09:28:50.870Z,47.64
2019-04-27T09:29:50.800Z,49.01
2019-04-27T09:30:50.801Z,49.53
2019-04-27T09:31:50.823Z,50.97
2019-04-27T09:32:50.767Z,50.79
2019-04-27T09:33:50.779Z,51.32
2019-04-27T09:34:50.754Z,51.45
2019-04-27T09:35:50.747Z,51.86
2019-04-27T09:36:50.798Z,52.69
2019-04-27T09:37:50.719Z,52.89
2019-04-27T09:38:50.710Z,52.59
2019-04-27T09:39:50.698Z,52.89
2019-04-27T09:40:50.680Z,52.08
2019-04-27T09:41:50.710Z,52.89
2019-04-27T09:42:50.669Z,53.17
2019-04-27T09:43:50.653Z,54.08
2019-04-27T09:44:50.654Z,55.12
2019-04-27T09:45:50.630Z,54.59
2019-04-27T09:46:50.676Z,55.40
2019-04-27T09:47:50.645Z,56.03
2019-04-27T09:48:50.601Z,55.32
2019-04-27T09:49:50.590Z,55.93
2019-04-27T09:50:50.573Z,55.83
2019-04-27T09:51:50.606Z,56.03
2019-04-27T09:52:50.573Z,55.52
2019-04-27T09:53:50.587Z,54.92
2019-04-27T09:54:50.535Z,55.22
2019-04-27T09:55:50.515Z,56.44
2019-04-27T09:56:51.490Z,53.50
2019-04-27T09:57:50.491Z,52.89
2019-04-27T09:58:50.494Z,53.42
2019-04-27T09:59:50.526Z,53.42
2019-04-27T10:00:50.520Z,53.02
2019-04-27T10:01:50.492Z,54.13
2019-04-27T10:02:50.507Z,53.63
2019-04-27T10:03:50.455Z,54.24
2019-04-27T10:04:50.471Z,55.15
2019-04-27T10:05:50.430Z,55.52
2019-04-27T10:06:50.484Z,54.38
2019-04-27T10:07:50.437Z,54.05
2019-04-27T10:08:50.459Z,52.72
2019-04-27T10:09:50.427Z,51.90
2019-04-27T10:10:50.620Z,50.57
2019-04-27T10:11:50.389Z,50.87
2019-04-27T10:12:50.349Z,50.26
2019-04-27T10:13:50.327Z,48.65
2019-04-27T10:14:50.326Z,49.15
2019-04-27T10:15:50.313Z,47.43
2019-04-27T10:16:50.312Z,47.13
2019-04-27T10:17:50.272Z,46.14
2019-04-27T10:18:50.334Z,47.09
2019-04-27T10:19:50.273Z,48.94
2019-04-27T10:20:59.025Z,50.76
2019-04-27T10:21:51.234Z,50.86
2019-04-27T10:22:50.268Z,49.65
2019-04-27T10:23:50.242Z,49.80
2019-04-27T10:24:50.243Z,49.38
2019-04-27T10:25:50.183Z,48.95
2019-04-27T10:26:50.183Z,48.54
2019-04-27T10:27:50.248Z,48.54
2019-04-27T10:28:50.154Z,48.11
2019-04-27T10:29:50.164Z,46.80
2019-04-27T10:30:50.161Z,49.15
2019-04-27T10:31:50.137Z,49.13
2019-04-27T10:32:50.145Z,47.19
2019-04-27T10:33:50.106Z,45.85
2019-04-27T10:34:50.095Z,47.85
2019-04-27T10:35:50.145Z,46.79
2019-04-27T10:36:50.076Z,46.99
2019-04-27T10:37:50.074Z,45.68
2019-04-27T10:38:50.053Z,43.91
2019-04-27T10:39:50.045Z,44.46
2019-04-27T10:40:50.082Z,44.56
2019-04-27T10:41:50.040Z,45.89
2019-04-27T10:42:50.004Z,45.00
2019-04-27T10:43:49.986Z,45.73
2019-04-27T10:44:50.005Z,46.64
2019-04-27T10:45:50.035Z,46.95
2019-04-27T10:46:49.964Z,47.55
2019-04-27T10:47:49.959Z,47.78
2019-04-27T10:48:49.938Z,47.80
2019-04-27T10:49:49.957Z,48.21
2019-04-27T10:50:49.916Z,48.49
2019-04-27T10:51:49.950Z,47.88
2019-04-27T10:52:53.897Z,47.47
2019-04-27T10:53:49.898Z,48.16
2019-04-27T10:54:49.869Z,47.63
2019-04-27T10:55:49.866Z,45.61
2019-04-27T10:56:49.883Z,46.14
2019-04-27T10:57:49.847Z,45.86
2019-04-27T10:58:49.828Z,45.03
2019-04-27T10:59:49.829Z,45.43
2019-04-27T11:00:49.844Z,44.70
2019-04-27T11:01:49.818Z,44.70
2019-04-27T11:02:49.803Z,44.58
2019-04-27T11:03:49.796Z,43.97
2019-04-27T11:04:49.757Z,45.31
2019-04-27T11:05:49.790Z,46.12
2019-04-27T11:06:49.760Z,46.32
2019-04-27T11:07:49.759Z,46.80
2019-04-27T11:08:49.755Z,46.40
2019-04-27T11:09:49.709Z,47.61
2019-04-27T11:10:49.740Z,44.98
2019-04-27T11:11:49.688Z,46.20
2019-04-27T11:12:49.692Z,45.79
2019-04-27T11:13:49.680Z,46.09
2019-04-27T11:14:49.679Z,45.79
2019-04-27T11:15:49.746Z,47.23
2019-04-27T11:16:49.628Z,45.63
2019-04-27T11:17:49.621Z,44.80
2019-04-27T11:18:49.619Z,44.13
2019-04-27T11:19:49.601Z,43.95
2019-04-27T11:20:49.640Z,44.64
2019-04-27T11:21:49.617Z,44.64
2019-04-27T11:22:49.569Z,43.04
2019-04-27T11:23:49.562Z,42.54
2019-04-27T11:24:49.552Z,43.46
2019-04-27T11:25:49.523Z,43.59
2019-04-27T11:26:49.560Z,45.03
2019-04-27T11:27:49.520Z,46.46
2019-04-27T11:28:49.500Z,46.28
2019-04-27T11:29:49.545Z,47.70
2019-04-27T11:30:49.481Z,46.79
2019-04-27T11:31:49.505Z,45.65
2019-04-27T11:32:49.450Z,45.04
2019-04-27T11:33:49.463Z,44.24
2019-04-27T11:34:49.478Z,45.45
2019-04-27T11:35:49.426Z,45.75
2019-04-27T11:36:49.413Z,44.32
2019-04-27T11:37:49.440Z,45.00
2019-04-27T11:38:49.392Z,43.57
2019-04-27T11:39:49.411Z,43.26
2019-04-27T11:40:49.369Z,41.12
2019-04-27T11:41:49.352Z,42.74
2019-04-27T11:42:49.342Z,42.05
2019-04-27T11:43:49.331Z,43.46
2019-04-27T11:44:49.376Z,42.66
2019-04-27T11:45:49.312Z,44.32
2019-04-27T11:46:49.302Z,45.23
2019-04-27T11:47:49.339Z,46.44
2019-04-27T11:48:49.290Z,46.75
2019-04-27T11:49:49.312Z,46.83
2019-04-27T11:50:49.252Z,45.81
2019-04-27T11:51:49.246Z,45.71
2019-04-27T11:52:49.242Z,45.53
2019-04-27T11:53:49.224Z,45.73
2019-04-27T11:54:49.243Z,46.04
2019-04-27T11:55:49.205Z,45.43
2019-04-27T11:56:49.197Z,45.33
2019-04-27T11:57:49.213Z,45.63
2019-04-27T11:58:49.181Z,45.03
2019-04-27T11:59:49.174Z,45.43
2019-04-27T12:00:49.176Z,44.20
2019-04-27T12:01:49.135Z,44.09
2019-04-27T12:02:49.149Z,44.27
2019-04-27T12:03:49.125Z,43.77
2019-04-27T12:04:49.158Z,43.87
2019-04-27T12:05:49.130Z,44.17
2019-04-27T12:06:49.091Z,44.07
2019-04-27T12:07:49.074Z,44.49
2019-04-27T12:08:49.116Z,45.41
2019-04-27T12:09:49.053Z,46.01
2019-04-27T12:10:49.037Z,44.88
2019-04-27T12:11:49.052Z,43.97
2019-04-27T12:12:49.022Z,44.78
2019-04-27T12:13:49.035Z,43.77
2019-04-27T12:14:48.995Z,43.87
2019-04-27T12:15:48.976Z,43.65
2019-04-27T12:16:48.975Z,44.76
2019-04-27T12:17:48.969Z,43.95
2019-04-27T12:18:49.274Z,44.58
2019-04-27T12:19:48.975Z,44.78
2019-04-27T12:20:48.948Z,44.78
2019-04-27T12:21:48.915Z,44.78
2019-04-27T12:22:48.922Z,45.08
2019-04-27T12:23:48.926Z,45.18
2019-04-27T12:24:48.885Z,45.61
2019-04-27T12:25:48.875Z,45.81
2019-04-27T12:26:48.895Z,46.92
2019-04-27T12:27:48.849Z,46.64
2019-04-27T12:28:48.847Z,46.75
2019-04-27T12:29:48.847Z,47.27
2019-04-27T12:30:48.847Z,48.18
2019-04-27T12:31:49.178Z,48.31
2019-04-27T12:32:48.786Z,49.02
2019-04-27T12:33:48.782Z,49.32
2019-04-27T12:34:48.777Z,49.11
2019-04-27T12:35:48.809Z,50.15
2019-04-27T12:36:48.775Z,50.35
2019-04-27T12:37:48.746Z,50.56
2019-04-27T12:38:48.729Z,49.14
2019-04-27T12:39:48.765Z,49.34
2019-04-27T12:40:48.709Z,48.33
2019-04-27T12:41:48.707Z,48.54
2019-04-27T12:42:48.687Z,47.92
2019-04-27T12:43:48.679Z,49.16
2019-04-27T12:44:48.707Z,49.08
2019-04-27T12:45:48.660Z,50.51
2019-04-27T12:46:48.650Z,50.20
2019-04-27T12:47:48.640Z,50.20
2019-04-27T12:48:48.619Z,50.28
2019-04-27T12:49:48.637Z,49.57
2019-04-27T12:50:48.607Z,50.08
2019-04-27T12:51:48.581Z,50.08